createdAt,value
2023-02-06T16:53:34.748Z,108.00
2023-02-06T16:57:45.077Z,77.90
2023-02-06T17:02:31.016Z,47.90
2023-02-06T17:16:07.584Z,34.60
2023-02-06T17:20:38.915Z,28.60
2023-02-06T17:24:42.552Z,27.60
2023-02-06T17:28:46.460Z,58.40
2023-02-06T17:33:53.332Z,50.80
2023-02-06T17:37:56.419Z,34.80
2023-02-06T17:42:03.684Z,34.70
2023-02-06T17:46:07.535Z,53.70
2023-02-06T17:50:39.159Z,68.00
2023-02-06T17:54:42.915Z,72.30
2023-02-06T17:58:52.209Z,42.80
2023-02-06T18:02:58.110Z,35.40
2023-02-06T18:08:06.717Z,67.40
2023-02-06T18:12:09.907Z,71.20
2023-02-06T18:17:28.324Z,74.90
2023-02-06T18:21:36.869Z,44.20
2023-02-06T18:25:43.438Z,34.80
2023-02-06T18:29:50.224Z,44.70
2023-02-06T18:37:57.473Z,43.60
2023-02-06T18:42:22.358Z,47.50
2023-02-06T18:46:25.522Z,46.40
2023-02-06T18:50:39.499Z,96.30
2023-02-06T18:54:42.715Z,52.80
2023-02-06T18:58:50.965Z,38.60
2023-02-06T19:02:54.679Z,39.00
2023-02-06T19:06:57.731Z,43.20
2023-02-06T19:11:00.738Z,44.90
2023-02-06T19:15:04.945Z,39.80
2023-02-06T19:19:07.977Z,39.20
2023-02-06T19:23:11.008Z,48.00
2023-02-06T19:27:17.455Z,38.50
2023-02-06T19:31:24.115Z,35.90
2023-02-06T19:35:28.499Z,36.10
2023-02-06T19:45:35.231Z,67.70
2023-02-06T19:49:38.951Z,40.90
2023-02-06T19:59:27.090Z,67.10
2023-02-06T20:04:03.543Z,96.50
2023-02-06T20:08:06.553Z,58.70
2023-02-06T20:12:15.327Z,41.30
2023-02-06T20:16:21.453Z,47.10
2023-02-06T20:20:25.083Z,44.10
2023-02-06T20:24:32.602Z,40.00
2023-02-06T20:28:57.729Z,37.40
2023-02-06T20:33:00.725Z,39.80
2023-02-06T20:37:18.653Z,32.60
2023-02-06T20:45:34.356Z,70.30
2023-02-06T20:49:37.739Z,43.60
2023-02-06T20:54:07.136Z,53.00
2023-02-06T20:58:11.154Z,56.10
2023-02-06T21:02:51.431Z,49.30
2023-02-06T21:06:56.548Z,56.60
2023-02-06T21:10:59.659Z,59.10
2023-02-06T21:15:15.256Z,44.00
2023-02-06T21:19:46.639Z,41.00
2023-02-06T21:23:49.778Z,63.60
2023-02-06T21:27:54.042Z,80.80
2023-02-06T21:32:12.196Z,140.80
2023-02-06T21:36:16.539Z,167.40
2023-02-06T21:41:00.815Z,121.60
2023-02-06T21:45:04.433Z,88.80
2023-02-06T21:54:55.877Z,139.60
2023-02-06T21:58:58.977Z,158.80
2023-02-06T22:04:00.066Z,134.30
2023-02-06T22:08:03.707Z,128.80
2023-02-06T22:12:07.617Z,183.30
2023-02-06T22:16:12.969Z,146.30
2023-02-06T22:20:16.463Z,166.10
2023-02-06T22:24:20.124Z,170.50
2023-02-06T22:28:31.732Z,190.00
2023-02-06T22:32:38.723Z,165.30
2023-02-06T22:36:44.072Z,125.60
2023-02-06T22:40:47.887Z,159.60
2023-02-06T22:44:52.164Z,200.80
2023-02-06T22:48:56.755Z,179.50
2023-02-06T22:53:18.616Z,186.40
2023-02-06T22:57:22.244Z,160.80
2023-02-06T23:01:30.770Z,118.50
2023-02-06T23:05:36.087Z,116.20
2023-02-06T23:09:40.817Z,73.90
2023-02-06T23:13:44.434Z,97.90
2023-02-06T23:17:49.788Z,89.70
2023-02-06T23:21:53.223Z,76.60
2023-02-06T23:25:59.186Z,87.20
2023-02-06T23:30:02.891Z,91.40
2023-02-06T23:34:06.515Z,89.80
2023-02-06T23:38:11.395Z,96.40
2023-02-06T23:42:14.982Z,77.70
2023-02-06T23:46:20.326Z,95.20
2023-02-06T23:50:25.129Z,92.00
2023-02-06T23:54:28.715Z,94.60
2023-02-06T23:58:32.550Z,86.30
